Time;durP1;ratioP1;P1;durP2;ratioP2;P2;SDS_P1;SDS_P2;PMS_P1;PMS_P2;Temp;Humidity;BMP_temperature;BMP_pressure;BME280_temperature;BME280_humidity;BME280_pressure;Samples;Min_cycle;Max_cycle;Signal;HPM_P1;HPM_P2
2023/11/18 00:01:15;;;;;;;1.33;1.20;;;5.10;99.90;4.90;101106.00;;;;4957640;28;101697;-66
2023/11/18 00:03:41;;;;;;;0.80;0.80;;;5.10;99.90;5.00;101099.00;;;;4953934;28;113813;-66
2023/11/18 00:06:07;;;;;;;2.20;0.83;;;5.10;99.90;4.90;101100.00;;;;4953530;28;112525;-68
2023/11/18 00:08:33;;;;;;;0.80;0.80;;;5.20;99.90;4.90;101099.00;;;;4955504;28;82835;-67
2023/11/18 00:10:59;;;;;;;1.27;1.17;;;5.20;99.90;5.00;101118.00;;;;4953353;28;99678;-68
2023/11/18 00:13:26;;;;;;;1.70;1.20;;;5.10;99.90;4.90;101100.00;;;;4953996;28;110850;-69
2023/11/18 00:15:52;;;;;;;1.17;0.87;;;5.00;99.90;4.90;101107.00;;;;4958094;28;83698;-69
2023/11/18 00:18:18;;;;;;;0.93;0.87;;;5.10;99.90;4.90;101112.00;;;;4954611;28;83044;-68
2023/11/18 00:20:45;;;;;;;1.80;1.30;;;5.20;99.90;5.00;101117.00;;;;4955424;28;83787;-68
2023/11/18 00:23:11;;;;;;;1.57;1.47;;;5.10;99.90;4.90;101119.00;;;;4950362;28;84094;-69
2023/11/18 00:25:39;;;;;;;1.67;1.23;;;5.10;99.90;4.90;101124.00;;;;4940523;28;112077;-69
2023/11/18 00:28:07;;;;;;;1.60;1.20;;;5.10;99.90;4.90;101118.00;;;;4953119;28;82910;-68
2023/11/18 00:30:33;;;;;;;1.40;1.00;;;5.40;99.90;4.90;101139.00;;;;4955409;28;82685;-66
2023/11/18 00:32:59;;;;;;;2.50;1.43;;;5.10;99.90;4.90;101123.00;;;;4951071;28;83171;-67
2023/11/18 00:35:24;;;;;;;2.13;1.50;;;5.20;99.90;4.90;101128.00;;;;4951323;28;90244;-68
2023/11/18 00:37:50;;;;;;;4.13;1.30;;;5.10;99.90;4.90;101142.00;;;;4954313;28;110566;-68
2023/11/18 00:40:18;;;;;;;2.70;1.50;;;5.50;99.90;4.90;101147.00;;;;4957232;28;82809;-67
2023/11/18 00:42:45;;;;;;;1.67;1.13;;;5.00;99.90;4.90;101142.00;;;;4959267;28;84111;-66
2023/11/18 00:45:12;;;;;;;2.07;1.60;;;5.10;99.90;4.80;101151.00;;;;4955110;28;84262;-67
2023/11/18 00:47:40;;;;;;;1.37;1.27;;;5.00;99.90;4.80;101156.00;;;;4954476;28;82751;-70
2023/11/18 00:50:08;;;;;;;1.50;1.37;;;5.00;99.90;4.80;101151.00;;;;4954408;28;82853;-68
2023/11/18 00:52:34;;;;;;;2.30;1.20;;;5.00;99.90;4.80;101142.00;;;;4953395;28;83668;-68
2023/11/18 00:55:00;;;;;;;3.73;1.27;;;5.00;99.90;4.80;101155.00;;;;4952362;28;101045;-67
2023/11/18 00:57:26;;;;;;;2.07;1.50;;;5.00;99.90;4.80;101155.00;;;;4956903;28;83261;-66
2023/11/18 00:59:52;;;;;;;1.07;0.80;;;5.00;99.90;4.70;101157.00;;;;4951368;28;101912;-68
2023/11/18 01:02:18;;;;;;;2.67;1.30;;;4.90;99.90;4.70;101150.00;;;;4954700;28;109356;-66
2023/11/18 01:04:47;;;;;;;0.83;0.80;;;4.90;99.90;4.70;101151.00;;;;4949160;28;87293;-66
2023/11/18 01:07:13;;;;;;;2.40;1.33;;;5.60;99.90;4.70;101169.00;;;;4948348;28;83822;-68
2023/11/18 01:09:39;;;;;;;1.87;1.00;;;4.80;99.90;4.70;101166.00;;;;4954529;28;98444;-68
2023/11/18 01:12:09;;;;;;;2.73;1.53;;;4.80;99.90;4.70;101174.00;;;;4951321;28;104540;-66
2023/11/18 01:14:37;;;;;;;2.23;0.93;;;4.80;99.90;4.70;101183.00;;;;4953465;28;83526;-66
2023/11/18 01:17:04;;;;;;;1.17;0.90;;;4.80;99.90;4.70;101179.00;;;;4951518;28;83181;-67
2023/11/18 01:19:30;;;;;;;2.87;1.43;;;4.90;99.90;4.70;101188.00;;;;4953542;28;82769;-67
2023/11/18 01:21:55;;;;;;;1.73;1.53;;;5.40;99.90;4.70;101185.00;;;;4951375;28;113536;-68
2023/11/18 01:24:21;;;;;;;1.67;1.43;;;4.80;99.90;4.70;101192.00;;;;4950720;28;113110;-69
2023/11/18 01:27:10;;;;;;;2.17;1.20;;;4.80;99.90;4.60;101179.00;;;;4957435;28;82201;-66
2023/11/18 01:29:36;;;;;;;1.57;1.33;;;5.60;99.90;4.60;101178.00;;;;4958373;28;83000;-67
2023/11/18 01:32:08;;;;;;;2.03;1.37;;;4.90;99.90;4.60;101185.00;;;;4952831;28;112813;-66
2023/11/18 01:34:40;;;;;;;2.80;1.57;;;4.80;99.90;4.60;101200.00;;;;4958225;28;83885;-67
2023/11/18 01:37:07;;;;;;;1.73;1.57;;;4.80;99.90;4.60;101203.00;;;;4951424;28;83402;-66
2023/11/18 01:39:36;;;;;;;2.50;2.07;;;5.20;99.90;4.60;101190.00;;;;4954529;28;82814;-68
2023/11/18 01:42:03;;;;;;;2.53;1.97;;;4.80;99.90;4.50;101197.00;;;;4954660;28;112620;-68
2023/11/18 01:44:30;;;;;;;1.30;1.17;;;4.80;99.90;4.50;101198.00;;;;4957775;28;104165;-67
2023/11/18 01:46:57;;;;;;;2.83;1.60;;;4.70;99.90;4.50;101192.00;;;;4953164;28;91353;-67
2023/11/18 01:49:24;;;;;;;2.30;1.57;;;4.70;99.90;4.40;101200.00;;;;4951208;28;100923;-67
2023/11/18 01:51:53;;;;;;;2.33;1.73;;;4.60;99.90;4.40;101204.00;;;;4955760;28;82062;-67
2023/11/18 01:54:21;;;;;;;2.33;1.40;;;4.60;99.90;4.40;101212.00;;;;4951190;28;83747;-66
2023/11/18 01:56:49;;;;;;;1.67;1.33;;;5.10;99.90;4.40;101208.00;;;;4954395;28;97566;-66
2023/11/18 01:59:18;;;;;;;2.53;1.97;;;4.60;99.90;4.40;101206.00;;;;4957138;28;84676;-68
2023/11/18 02:01:59;;;;;;;2.60;1.93;;;4.10;99.90;4.40;101217.00;;;;4956340;28;84261;-68
2023/11/18 02:04:25;;;;;;;1.47;1.37;;;4.60;99.90;4.30;101217.00;;;;4953406;28;83578;-68
2023/11/18 02:06:52;;;;;;;2.73;1.43;;;4.60;99.90;4.30;101223.00;;;;4963677;28;82697;-68
2023/11/18 02:09:29;;;;;;;5.33;2.17;;;4.60;99.90;4.30;101223.00;;;;4952817;28;110149;-68
2023/11/18 02:12:23;;;;;;;2.23;1.93;;;4.50;99.90;4.30;101217.00;;;;4950940;28;82844;-67
2023/11/18 02:14:51;;;;;;;3.27;2.00;;;4.50;99.90;4.30;101216.00;;;;4951512;28;82816;-66
2023/11/18 02:17:28;;;;;;;1.97;1.57;;;4.50;99.90;4.30;101216.00;;;;4949568;28;82303;-67
2023/11/18 02:19:57;;;;;;;3.10;2.17;;;4.50;99.90;4.30;101218.00;;;;4955067;28;82803;-66
2023/11/18 02:22:24;;;;;;;3.20;1.67;;;4.50;99.90;4.30;101210.00;;;;4950838;28;106873;-66
2023/11/18 02:24:50;;;;;;;1.60;1.50;;;4.50;99.90;4.30;101221.00;;;;4949635;28;85586;-65
2023/11/18 02:27:18;;;;;;;2.47;2.13;;;4.50;99.90;4.30;101221.00;;;;4948266;28;82893;-66
2023/11/18 02:29:45;;;;;;;4.30;2.00;;;4.50;99.90;4.30;101222.00;;;;4953686;28;82968;-68
2023/11/18 02:32:37;;;;;;;3.73;1.77;;;4.50;99.90;4.30;101214.00;;;;4950625;28;112516;-67
2023/11/18 02:35:29;;;;;;;3.03;2.07;;;4.50;99.90;4.20;101221.00;;;;4955838;28;102597;-66
2023/11/18 02:37:56;;;;;;;4.40;2.13;;;4.50;99.90;4.20;101215.00;;;;4950154;28;82815;-68
2023/11/18 02:40:40;;;;;;;2.53;1.53;;;4.50;99.90;4.20;101221.00;;;;4956404;28;82555;-66
2023/11/18 02:43:07;;;;;;;2.57;2.20;;;4.50;99.90;4.20;101228.00;;;;4954972;28;82252;-67
2023/11/18 02:45:35;;;;;;;2.90;2.10;;;4.40;99.90;4.30;101222.00;;;;4951412;28;105338;-69
2023/11/18 02:48:02;;;;;;;2.83;1.73;;;4.50;99.90;4.30;101230.00;;;;4951082;28;84003;-69
2023/11/18 02:50:29;;;;;;;2.37;1.70;;;4.50;99.90;4.30;101222.00;;;;4954565;28;83779;-69
2023/11/18 02:52:54;;;;;;;3.20;2.20;;;4.40;99.90;4.30;101220.00;;;;4953927;28;82726;-66
2023/11/18 02:55:21;;;;;;;3.90;1.77;;;5.20;99.90;4.30;101228.00;;;;4955162;28;111997;-66
2023/11/18 02:57:47;;;;;;;2.77;2.00;;;4.50;99.90;4.30;101225.00;;;;4951222;28;83145;-65
2023/11/18 03:00:21;;;;;;;3.30;2.37;;;4.50;99.90;4.30;101231.00;;;;4952752;28;99342;-65
2023/11/18 03:02:49;;;;;;;2.13;1.70;;;4.50;99.90;4.30;101239.00;;;;4954678;28;83466;-65
2023/11/18 03:05:15;;;;;;;1.93;1.73;;;4.50;99.90;4.30;101244.00;;;;4955840;28;88644;-68
2023/11/18 03:07:42;;;;;;;3.00;1.43;;;4.60;99.90;4.30;101243.00;;;;4955199;28;82304;-68
2023/11/18 03:10:11;;;;;;;4.33;2.40;;;4.50;99.90;4.30;101234.00;;;;4958234;28;82808;-65
2023/11/18 03:12:40;;;;;;;2.43;1.90;;;4.50;99.90;4.30;101237.00;;;;4955050;28;83737;-65
2023/11/18 03:15:11;;;;;;;2.63;2.23;;;4.50;99.90;4.30;101241.00;;;;4957708;28;83688;-66
2023/11/18 03:17:38;;;;;;;2.87;1.47;;;4.60;99.90;4.40;101238.00;;;;4956035;28;82954;-68
2023/11/18 03:20:08;;;;;;;2.43;2.00;;;4.60;99.90;4.40;101234.00;;;;4953019;28;82867;-68
2023/11/18 03:22:33;;;;;;;2.40;1.83;;;4.60;99.90;4.40;101238.00;;;;4939159;28;84705;-69
2023/11/18 03:24:59;;;;;;;2.50;2.07;;;4.50;99.90;4.40;101233.00;;;;4957355;28;112681;-66
2023/11/18 03:27:25;;;;;;;2.23;2.03;;;4.60;99.90;4.40;101237.00;;;;4951815;28;84010;-65
2023/11/18 03:29:51;;;;;;;3.53;1.90;;;5.10;99.90;4.40;101241.00;;;;4955139;28;107221;-66
2023/11/18 03:32:17;;;;;;;1.97;1.70;;;4.60;99.90;4.40;101238.00;;;;4951497;28;110802;-67
2023/11/18 03:34:44;;;;;;;2.50;2.07;;;4.60;99.90;4.40;101245.00;;;;4951946;28;82919;-68
2023/11/18 03:37:10;;;;;;;3.73;2.73;;;4.60;99.90;4.30;101239.00;;;;4954347;28;82943;-69
2023/11/18 03:39:35;;;;;;;2.27;1.90;;;4.60;99.90;4.30;101249.00;;;;4954328;28;84146;-68
2023/11/18 03:42:01;;;;;;;1.63;1.53;;;4.50;99.90;4.30;101244.00;;;;4950324;28;110437;-69
2023/11/18 03:44:27;;;;;;;3.30;2.67;;;4.70;99.90;4.30;101244.00;;;;4953834;28;110772;-68
2023/11/18 03:46:52;;;;;;;1.97;1.53;;;4.50;99.90;4.30;101253.00;;;;4953115;28;109650;-67
2023/11/18 03:49:20;;;;;;;4.67;1.93;;;4.60;99.90;4.30;101249.00;;;;4954481;28;109254;-66
2023/11/18 03:51:45;;;;;;;2.97;2.60;;;5.20;99.90;4.30;101246.00;;;;4955623;28;83140;-67
2023/11/18 03:54:12;;;;;;;3.03;2.00;;;4.50;99.90;4.30;101246.00;;;;4950852;28;112446;-67
2023/11/18 03:56:38;;;;;;;3.53;2.33;;;4.90;99.90;4.30;101246.00;;;;4959256;28;82018;-67
2023/11/18 03:59:04;;;;;;;3.37;1.83;;;4.40;99.90;4.30;101258.00;;;;4953408;28;82913;-66
2023/11/18 04:01:30;;;;;;;5.83;2.50;;;4.50;99.90;4.30;101248.00;;;;4959385;28;110549;-66
2023/11/18 04:03:56;;;;;;;3.13;1.97;;;4.50;99.90;4.30;101242.00;;;;4957504;28;94657;-67
2023/11/18 04:06:24;;;;;;;2.70;2.43;;;4.40;99.90;4.30;101248.00;;;;4957849;28;94982;-67
2023/11/18 04:08:50;;;;;;;3.40;2.10;;;4.50;99.90;4.30;101261.00;;;;4956158;28;82897;-68
2023/11/18 04:11:16;;;;;;;3.30;1.87;;;4.50;99.90;4.30;101261.00;;;;4953978;28;83826;-69
2023/11/18 04:13:42;;;;;;;3.97;2.70;;;4.50;99.90;4.30;101263.00;;;;4957225;28;82893;-68
2023/11/18 04:16:15;;;;;;;2.60;1.80;;;4.50;99.90;4.30;101262.00;;;;4954744;28;82545;-68
2023/11/18 04:18:44;;;;;;;2.07;1.87;;;5.20;99.90;4.30;101257.00;;;;4955637;28;82813;-69
2023/11/18 04:21:10;;;;;;;3.17;1.90;;;4.50;99.90;4.30;101261.00;;;;4953553;28;82477;-68
2023/11/18 04:23:42;;;;;;;2.53;1.83;;;4.80;99.90;4.20;101262.00;;;;4954143;28;102331;-68
2023/11/18 04:26:08;;;;;;;3.30;1.80;;;4.50;99.90;4.20;101271.00;;;;4954450;28;102146;-68
2023/11/18 04:28:35;;;;;;;4.53;2.40;;;4.40;99.90;4.20;101261.00;;;;4952515;28;107230;-69
2023/11/18 04:31:02;;;;;;;2.07;1.50;;;4.40;99.90;4.20;101273.00;;;;4949017;28;86163;-68
2023/11/18 04:33:32;;;;;;;3.77;2.30;;;4.40;99.90;4.20;101268.00;;;;4953786;28;84151;-68
2023/11/18 04:35:57;;;;;;;1.63;1.50;;;4.40;99.90;4.10;101268.00;;;;4957569;28;82829;-68
2023/11/18 04:38:25;;;;;;;2.57;2.37;;;4.40;99.90;4.10;101281.00;;;;4948303;28;109950;-68
2023/11/18 04:40:51;;;;;;;3.50;2.20;;;4.40;99.90;4.20;101283.00;;;;4956488;28;83941;-68
2023/11/18 04:43:17;;;;;;;4.20;2.00;;;4.40;99.90;4.10;101280.00;;;;4951713;28;83766;-67
2023/11/18 04:45:43;;;;;;;5.00;2.83;;;4.30;99.90;4.10;101280.00;;;;4954380;28;109053;-67
2023/11/18 04:48:09;;;;;;;1.70;1.60;;;4.30;99.90;4.10;101282.00;;;;4957919;28;108636;-67
2023/11/18 04:50:34;;;;;;;4.00;2.20;;;5.10;99.90;4.10;101279.00;;;;4956662;28;83911;-67
2023/11/18 04:53:00;;;;;;;2.43;2.20;;;4.30;99.90;4.10;101273.00;;;;4953835;28;101794;-67
2023/11/18 04:55:26;;;;;;;2.17;1.87;;;4.40;99.90;4.10;101284.00;;;;4952858;28;82732;-67
2023/11/18 04:57:52;;;;;;;3.37;1.73;;;4.30;99.90;4.10;101290.00;;;;4952119;28;107880;-66
2023/11/18 05:00:19;;;;;;;3.53;2.33;;;4.30;99.90;4.10;101284.00;;;;4954633;28;111390;-67
2023/11/18 05:02:48;;;;;;;4.30;1.97;;;4.30;99.90;4.10;101291.00;;;;4953943;28;83323;-66
2023/11/18 05:05:15;;;;;;;2.30;1.87;;;4.40;99.90;4.10;101295.00;;;;4954435;28;82825;-66
2023/11/18 05:07:42;;;;;;;3.43;2.00;;;4.30;99.90;4.10;101294.00;;;;4956312;28;82829;-66
2023/11/18 05:10:09;;;;;;;2.83;1.53;;;4.30;99.90;4.10;101287.00;;;;4955413;28;82402;-66
2023/11/18 05:12:36;;;;;;;4.50;2.20;;;4.40;99.90;4.10;101288.00;;;;4951036;28;83287;-66
2023/11/18 05:15:04;;;;;;;2.10;1.87;;;4.30;99.90;4.10;101286.00;;;;4954555;28;82827;-68
2023/11/18 05:17:30;;;;;;;4.20;2.67;;;5.10;99.90;4.10;101292.00;;;;4955872;28;83589;-68
2023/11/18 05:19:55;;;;;;;3.00;2.23;;;4.40;99.90;4.10;101295.00;;;;4952184;28;94958;-66
2023/11/18 05:22:21;;;;;;;1.83;1.60;;;4.40;99.90;4.10;101289.00;;;;4952324;28;110625;-66
2023/11/18 05:24:47;;;;;;;2.67;2.30;;;4.30;99.90;4.10;101300.00;;;;4953194;28;82831;-67
2023/11/18 05:27:15;;;;;;;2.67;2.27;;;4.90;99.90;4.20;101299.00;;;;4955683;28;82811;-67
2023/11/18 05:29:41;;;;;;;4.70;2.90;;;4.30;99.90;4.20;101293.00;;;;4952977;28;83966;-66
2023/11/18 05:32:07;;;;;;;3.67;2.60;;;4.40;99.90;4.20;101297.00;;;;4953641;28;83367;-66
2023/11/18 05:34:35;;;;;;;2.57;2.13;;;4.40;99.90;4.20;101304.00;;;;4951329;28;87234;-65
2023/11/18 05:37:01;;;;;;;3.27;2.10;;;5.00;99.90;4.20;101298.00;;;;4946624;28;83075;-66
2023/11/18 05:39:30;;;;;;;2.67;1.83;;;4.30;99.90;4.20;101302.00;;;;4950227;28;83742;-67
2023/11/18 05:41:57;;;;;;;5.40;2.60;;;4.50;99.90;4.20;101295.00;;;;4954093;28;85056;-67
2023/11/18 05:44:39;;;;;;;2.27;2.07;;;4.50;99.90;4.20;101299.00;;;;4946936;28;83312;-68
2023/11/18 05:47:11;;;;;;;3.07;2.43;;;4.50;99.90;4.20;101302.00;;;;4957845;28;82775;-66
2023/11/18 05:49:38;;;;;;;2.67;1.83;;;4.40;99.90;4.20;101300.00;;;;4926477;28;84068;-66
2023/11/18 05:52:04;;;;;;;3.00;2.57;;;4.40;99.90;4.30;101286.00;;;;4947045;28;83459;-66
2023/11/18 05:54:30;;;;;;;3.47;3.17;;;5.00;99.90;4.30;101297.00;;;;4946025;28;82762;-66
2023/11/18 05:56:56;;;;;;;4.13;2.53;;;4.50;99.90;4.20;101286.00;;;;4957047;28;82747;-66
2023/11/18 05:59:23;;;;;;;2.63;2.20;;;4.50;99.90;4.20;101296.00;;;;4949545;28;110930;-66
2023/11/18 06:01:49;;;;;;;4.03;2.30;;;4.30;99.90;4.20;101303.00;;;;4953811;28;82519;-67
2023/11/18 06:04:15;;;;;;;2.67;2.20;;;4.40;99.90;4.20;101304.00;;;;4952154;28;82933;-65
2023/11/18 06:06:41;;;;;;;4.33;2.60;;;4.40;99.90;4.20;101299.00;;;;4955037;28;83864;-66
2023/11/18 06:09:14;;;;;;;4.47;2.67;;;4.40;99.90;4.20;101306.00;;;;4956854;28;111731;-66
2023/11/18 06:11:41;;;;;;;3.53;2.40;;;4.40;99.90;4.20;101306.00;;;;4957031;28;83390;-68
2023/11/18 06:14:08;;;;;;;5.17;2.60;;;4.40;99.90;4.20;101312.00;;;;4953922;28;83278;-68
2023/11/18 06:16:35;;;;;;;5.00;2.67;;;4.40;99.90;4.20;101297.00;;;;4957758;28;83074;-66
2023/11/18 06:19:04;;;;;;;4.73;2.30;;;4.40;99.90;4.20;101310.00;;;;4951357;28;83137;-67
2023/11/18 06:21:31;;;;;;;4.27;2.30;;;4.40;99.90;4.20;101311.00;;;;4953601;28;85018;-65
2023/11/18 06:23:59;;;;;;;4.33;2.90;;;4.40;99.90;4.20;101309.00;;;;4951257;28;83153;-65
2023/11/18 06:26:28;;;;;;;2.67;2.33;;;4.40;99.90;4.20;101310.00;;;;4954101;28;82816;-68
2023/11/18 06:28:55;;;;;;;3.53;2.87;;;4.40;99.90;4.20;101308.00;;;;4951381;28;82972;-67
2023/11/18 06:31:23;;;;;;;4.53;3.17;;;4.40;99.90;4.20;101315.00;;;;4952564;28;97049;-67
2023/11/18 06:33:50;;;;;;;5.83;2.83;;;4.40;99.90;4.20;101315.00;;;;4957114;28;82922;-66
2023/11/18 06:36:18;;;;;;;4.97;2.33;;;4.40;99.90;4.20;101314.00;;;;4952484;28;92243;-66
2023/11/18 06:38:52;;;;;;;3.23;2.47;;;4.40;99.90;4.20;101322.00;;;;4951139;28;83489;-66
2023/11/18 06:41:22;;;;;;;4.33;2.90;;;4.90;99.90;4.20;101322.00;;;;4951969;28;89020;-66
2023/11/18 06:43:56;;;;;;;5.23;2.87;;;4.40;99.90;4.20;101316.00;;;;4952404;28;82886;-65
2023/11/18 06:46:33;;;;;;;4.70;3.10;;;4.40;99.90;4.20;101323.00;;;;4953049;28;82713;-66
2023/11/18 06:49:06;;;;;;;4.00;3.13;;;4.40;99.90;4.20;101328.00;;;;4956773;28;82849;-67
2023/11/18 06:51:37;;;;;;;3.40;3.10;;;4.40;99.90;4.20;101333.00;;;;4950818;28;83866;-65
2023/11/18 06:54:11;;;;;;;3.13;2.83;;;4.40;99.90;4.20;101336.00;;;;4952468;28;83162;-67
2023/11/18 06:56:44;;;;;;;5.27;3.13;;;4.50;99.90;4.30;101328.00;;;;4947735;28;83961;-68
2023/11/18 06:59:12;;;;;;;3.17;2.87;;;5.20;99.90;4.30;101330.00;;;;4952093;28;83066;-66
2023/11/18 07:01:40;;;;;;;3.57;2.80;;;4.50;99.90;4.30;101343.00;;;;4952048;28;83777;-66
2023/11/18 07:04:09;;;;;;;5.03;2.77;;;4.40;99.90;4.30;101344.00;;;;4947098;28;83263;-65
2023/11/18 07:06:38;;;;;;;3.03;2.57;;;4.50;99.90;4.30;101331.00;;;;4950132;28;82759;-66
2023/11/18 07:09:12;;;;;;;3.97;2.97;;;4.40;99.90;4.30;101339.00;;;;4946814;28;84112;-65
2023/11/18 07:11:40;;;;;;;4.63;3.10;;;4.50;99.90;4.30;101341.00;;;;4947077;28;83166;-67
2023/11/18 07:14:08;;;;;;;3.57;2.93;;;4.50;99.90;4.30;101339.00;;;;4952550;28;82075;-69
2023/11/18 07:16:34;;;;;;;4.07;2.90;;;4.50;99.90;4.30;101339.00;;;;4948568;28;82754;-68
2023/11/18 07:19:00;;;;;;;4.63;3.13;;;5.30;99.90;4.30;101345.00;;;;4952558;28;106204;-66
2023/11/18 07:21:26;;;;;;;3.83;2.87;;;4.50;99.90;4.30;101341.00;;;;4948828;28;110193;-67
2023/11/18 07:23:51;;;;;;;4.70;3.03;;;4.50;99.90;4.30;101341.00;;;;4948675;28;110100;-67
2023/11/18 07:26:17;;;;;;;4.30;3.43;;;4.50;99.90;4.40;101342.00;;;;4950999;28;83472;-66
2023/11/18 07:28:43;;;;;;;4.07;3.20;;;4.50;99.90;4.40;101363.00;;;;4950185;28;111795;-66
2023/11/18 07:31:09;;;;;;;5.90;2.87;;;4.50;99.90;4.40;101356.00;;;;4950093;28;83568;-66
2023/11/18 07:33:35;;;;;;;3.07;2.43;;;4.60;99.90;4.40;101359.00;;;;4953396;28;82845;-66
2023/11/18 07:36:02;;;;;;;5.07;3.53;;;4.50;99.90;4.40;101366.00;;;;4951934;28;109190;-68
2023/11/18 07:38:28;;;;;;;5.00;3.00;;;4.60;99.90;4.50;101367.00;;;;4932794;28;83565;-67
2023/11/18 07:40:56;;;;;;;4.80;3.10;;;5.20;99.90;4.50;101361.00;;;;4952426;28;82864;-66
2023/11/18 07:43:28;;;;;;;4.47;3.40;;;5.30;99.90;4.50;101364.00;;;;4951815;28;82969;-65
2023/11/18 07:45:54;;;;;;;3.83;2.70;;;4.70;99.90;4.50;101362.00;;;;4943265;28;83767;-67
2023/11/18 07:48:20;;;;;;;5.37;3.47;;;4.70;99.90;4.60;101369.00;;;;4949373;28;111497;-67
2023/11/18 07:50:49;;;;;;;4.73;3.53;;;4.70;99.90;4.60;101376.00;;;;4950297;28;83878;-67
2023/11/18 07:53:15;;;;;;;6.43;4.13;;;4.80;99.90;4.70;101378.00;;;;4950157;28;82924;-68
2023/11/18 07:55:41;;;;;;;5.93;3.77;;;5.50;99.90;4.70;101377.00;;;;4950031;28;82987;-67
2023/11/18 07:58:11;;;;;;;4.07;3.13;;;4.90;99.90;4.70;101379.00;;;;4951503;28;97011;-66
2023/11/18 08:00:46;;;;;;;10.27;4.37;;;4.90;99.90;4.70;101389.00;;;;4952016;28;83239;-67
2023/11/18 08:03:13;;;;;;;4.17;2.67;;;4.90;99.90;4.80;101383.00;;;;4955233;28;82273;-68
2023/11/18 08:05:43;;;;;;;4.83;3.30;;;5.70;99.90;4.80;101382.00;;;;4954385;28;82816;-67
2023/11/18 08:08:13;;;;;;;6.10;3.33;;;4.90;99.90;4.80;101407.00;;;;4948915;28;89088;-68
2023/11/18 08:10:40;;;;;;;3.57;2.77;;;5.00;99.90;4.80;101409.00;;;;4952927;28;95602;-67
2023/11/18 08:13:10;;;;;;;5.13;3.97;;;5.00;99.90;4.90;101409.00;;;;4944363;28;83161;-68
2023/11/18 08:15:40;;;;;;;7.10;3.70;;;5.00;99.90;4.90;101413.00;;;;4950611;28;83147;-67
2023/11/18 08:18:07;;;;;;;5.50;4.00;;;5.00;99.90;4.90;101409.00;;;;4952777;28;90515;-66
2023/11/18 08:20:33;;;;;;;6.27;3.63;;;5.90;99.90;4.90;101409.00;;;;4952336;28;83716;-67
2023/11/18 08:22:59;;;;;;;4.83;3.90;;;5.10;99.90;4.90;101416.00;;;;4948111;28;109896;-69
2023/11/18 08:25:25;;;;;;;5.77;3.50;;;5.10;99.90;5.00;101406.00;;;;4955513;28;108799;-67
2023/11/18 08:27:51;;;;;;;6.33;4.20;;;5.10;99.90;5.00;101415.00;;;;4949551;28;83454;-66
2023/11/18 08:30:18;;;;;;;5.57;4.33;;;5.20;99.90;5.00;101424.00;;;;4950000;28;82440;-66
2023/11/18 08:32:45;;;;;;;6.70;4.03;;;5.20;99.90;5.00;101415.00;;;;4946779;28;83124;-66
2023/11/18 08:35:14;;;;;;;4.50;3.40;;;5.20;99.90;5.00;101419.00;;;;4951623;28;84828;-66
2023/11/18 08:37:45;;;;;;;8.17;3.97;;;5.20;99.90;5.00;101414.00;;;;4946929;28;82812;-68
2023/11/18 08:40:14;;;;;;;5.13;4.13;;;5.20;99.90;5.10;101426.00;;;;4950478;28;83059;-68
2023/11/18 08:42:49;;;;;;;5.10;3.80;;;5.20;99.90;5.10;101427.00;;;;4948499;28;83091;-68
2023/11/18 08:45:16;;;;;;;5.80;3.33;;;5.50;99.90;5.20;101424.00;;;;4945521;28;82808;-67
2023/11/18 08:47:46;;;;;;;6.83;4.77;;;5.40;99.90;5.20;101424.00;;;;4948222;28;83000;-68
2023/11/18 08:50:16;;;;;;;7.00;4.23;;;5.40;99.90;5.20;101414.00;;;;4948176;28;83931;-68
2023/11/18 08:52:46;;;;;;;6.07;3.37;;;5.40;99.90;5.20;101422.00;;;;4950061;28;82190;-68
2023/11/18 08:55:25;;;;;;;5.57;3.43;;;5.30;99.90;5.20;101428.00;;;;4949883;28;82486;-68
2023/11/18 08:58:03;;;;;;;4.97;4.43;;;5.40;99.90;5.30;101435.00;;;;4947041;28;83702;-68
2023/11/18 09:00:47;;;;;;;8.37;4.07;;;5.40;99.90;5.40;101433.00;;;;4932228;28;84294;-68
2023/11/18 09:03:24;;;;;;;8.97;4.20;;;5.40;99.90;5.50;101436.00;;;;4943950;28;82735;-67
2023/11/18 09:05:58;;;;;;;6.70;4.53;;;5.60;99.90;5.60;101429.00;;;;4948540;28;82721;-68
2023/11/18 09:08:29;;;;;;;6.03;4.60;;;5.70;99.90;5.70;101437.00;;;;4951265;28;83049;-68
2023/11/18 09:10:56;;;;;;;8.40;5.10;;;5.80;99.90;5.80;101438.00;;;;4941933;28;82968;-68
2023/11/18 09:13:29;;;;;;;7.20;4.40;;;5.90;99.90;5.90;101445.00;;;;4949481;28;83959;-67
2023/11/18 09:16:15;;;;;;;4.10;3.63;;;6.60;99.90;5.90;101442.00;;;;4947779;28;82931;-68
2023/11/18 09:18:44;;;;;;;4.77;3.60;;;6.10;99.90;6.00;101447.00;;;;4953712;28;83855;-68
2023/11/18 09:21:14;;;;;;;5.60;4.30;;;6.10;99.90;6.00;101445.00;;;;4950641;28;82912;-68
2023/11/18 09:23:41;;;;;;;6.70;3.63;;;6.10;99.90;6.00;101448.00;;;;4951317;28;82778;-68
2023/11/18 09:26:09;;;;;;;4.43;3.27;;;6.10;99.90;6.10;101449.00;;;;4945983;28;83852;-68
2023/11/18 09:28:45;;;;;;;4.87;3.70;;;6.80;99.90;6.10;101455.00;;;;4942587;28;82751;-66
2023/11/18 09:31:14;;;;;;;7.53;4.23;;;6.70;99.90;6.10;101452.00;;;;4950275;28;83723;-66
2023/11/18 09:33:51;;;;;;;3.87;3.30;;;6.60;99.90;6.20;101466.00;;;;4950345;28;83144;-66
2023/11/18 09:36:18;;;;;;;7.50;4.67;;;7.00;99.90;6.20;101462.00;;;;4951193;28;82822;-67
2023/11/18 09:38:46;;;;;;;5.20;3.63;;;6.30;99.90;6.20;101458.00;;;;4949648;28;84615;-67
2023/11/18 09:41:12;;;;;;;5.80;5.07;;;6.30;99.90;6.20;101451.00;;;;4951294;28;84351;-67
2023/11/18 09:43:45;;;;;;;4.93;3.80;;;6.80;99.90;6.20;101460.00;;;;4953079;28;109933;-69
2023/11/18 09:46:23;;;;;;;6.90;5.13;;;6.40;99.90;6.10;101461.00;;;;4957821;28;83438;-67
2023/11/18 09:48:59;;;;;;;4.60;3.57;;;6.30;99.90;6.10;101454.00;;;;4951477;28;83654;-66
2023/11/18 09:51:30;;;;;;;5.87;4.23;;;6.30;99.90;6.10;101464.00;;;;4950422;28;83843;-69
2023/11/18 09:54:18;;;;;;;6.37;3.80;;;6.90;99.90;6.20;101465.00;;;;4948980;28;83542;-69
2023/11/18 09:57:16;;;;;;;4.83;3.97;;;6.40;99.90;6.20;101454.00;;;;4949020;28;91616;-68
2023/11/18 10:00:21;;;;;;;4.90;3.50;;;6.40;99.90;6.30;101452.00;;;;4947061;28;82678;-68
2023/11/18 10:02:50;;;;;;;7.07;4.83;;;6.50;99.90;6.60;101459.00;;;;4952158;28;83327;-68
2023/11/18 10:05:20;;;;;;;8.67;4.63;;;6.90;99.90;6.90;101470.00;;;;4955763;28;82693;-67
2023/11/18 10:07:47;;;;;;;7.60;5.77;;;6.90;99.90;7.40;101458.00;;;;4954195;28;82814;-68
2023/11/18 10:10:16;;;;;;;6.70;3.83;;;7.50;99.90;7.80;101463.00;;;;4953866;28;82237;-67
2023/11/18 10:12:52;;;;;;;9.43;5.47;;;7.60;99.90;8.10;101461.00;;;;4953046;28;82682;-67
2023/11/18 10:15:23;;;;;;;5.70;5.00;;;8.00;99.90;8.60;101464.00;;;;4957632;28;86987;-67
2023/11/18 10:17:59;;;;;;;6.97;3.63;;;8.50;99.90;9.00;101462.00;;;;4947349;28;85000;-68
2023/11/18 10:20:41;;;;;;;4.93;4.00;;;8.90;99.90;9.30;101462.00;;;;4955290;28;83109;-66
2023/11/18 10:23:12;;;;;;;6.37;3.60;;;9.20;99.90;9.40;101466.00;;;;4953742;28;83086;-66
2023/11/18 10:25:53;;;;;;;4.00;3.03;;;9.40;99.90;9.50;101460.00;;;;4950153;28;82769;-65
2023/11/18 10:28:27;;;;;;;4.50;3.20;;;9.50;99.90;9.30;101458.00;;;;4955812;28;98687;-67
2023/11/18 10:31:03;;;;;;;6.37;3.67;;;9.40;99.90;9.20;101448.00;;;;4951910;28;82802;-66
2023/11/18 10:33:33;;;;;;;4.97;3.03;;;9.30;99.90;9.10;101449.00;;;;4951104;28;82809;-68
2023/11/18 10:36:03;;;;;;;4.33;3.03;;;9.30;99.90;9.10;101455.00;;;;4956734;28;82183;-68
2023/11/18 10:38:43;;;;;;;4.77;2.30;;;9.20;99.90;9.10;101446.00;;;;4933320;27;83224;-67
2023/11/18 10:41:09;;;;;;;5.57;2.87;;;9.10;99.90;8.90;101444.00;;;;4951026;28;82640;-67
2023/11/18 10:43:35;;;;;;;7.70;2.73;;;9.00;99.90;8.70;101454.00;;;;4955201;28;83814;-65
2023/11/18 10:46:11;;;;;;;2.63;2.43;;;8.80;99.90;8.50;101442.00;;;;4957968;28;83064;-65
2023/11/18 10:48:48;;;;;;;3.60;2.57;;;9.00;99.90;8.30;101455.00;;;;4949284;28;82862;-68
2023/11/18 10:51:23;;;;;;;5.50;2.67;;;8.60;99.90;8.30;101447.00;;;;4951104;28;89231;-66
2023/11/18 10:53:58;;;;;;;3.57;2.23;;;8.50;99.90;8.20;101453.00;;;;4942569;27;83605;-67
2023/11/18 10:56:32;;;;;;;2.60;1.90;;;8.40;99.90;8.10;101462.00;;;;4951055;28;83950;-69
2023/11/18 10:59:07;;;;;;;4.33;3.00;;;8.30;99.90;8.10;101455.00;;;;4951303;28;82720;-68
2023/11/18 11:01:42;;;;;;;4.93;3.00;;;8.20;99.90;8.00;101462.00;;;;4954652;28;110403;-66
2023/11/18 11:04:11;;;;;;;5.60;2.37;;;8.20;99.90;7.90;101458.00;;;;4952962;28;82918;-65
2023/11/18 11:06:46;;;;;;;5.40;2.87;;;8.00;99.90;7.80;101446.00;;;;4947369;28;85402;-66
2023/11/18 11:09:17;;;;;;;4.57;3.37;;;7.90;99.90;7.70;101451.00;;;;4949540;28;83628;-67